Wednesday, April 25, 2018, 12:26 PM GMT
Back to Local

CYGR, Iles De La Madeleineque.

Location: , , Canada Lat: 47.417
Local Time: 12:26 PM GMT (12:26 GMT) Lon: -61.783
Time Zone: GMT Elev: 32 ft

Show me the last for .
Show Decoded

2018-04-25 12:00 METAR CYGR 251200Z 23020G28KT 20SM BKN230 07/00 A3011 RMK CI7 SLP199 =
2018-04-25 11:00 METAR CYGR 251100Z 23018G25KT 20SM BKN230 07/01 A3011 RMK CI6 SLP199 =
2018-04-25 10:00 METAR CYGR 251000Z 24018G24KT 20SM FEW170 SCT270 06/00 A3009 RMK AC1CI4 AC TR
                 SLP191 =
2018-04-25 09:00 METAR CYGR 250900Z 23017KT 20SM FEW170 SCT270 05/M00 A3009 RMK AC1CI3 SLP192 =
2018-04-25 02:00 METAR CYGR 250200Z 24017G22KT 15SM SCT230 08/M01 A3010 RMK CI3 LAST STFD
                 OBS/NEXT 250900 UTC SLP193 =
2018-04-25 01:00 METAR CYGR 250100Z 23016G22KT 15SM SCT240 09/M01 A3009 RMK CI4 SLP192 =
2018-04-25 00:00 METAR CYGR 250000Z 22015G24KT 15SM FEW230 BKN270 10/00 A3008 RMK CI2CI3 SLP189 =
2018-04-24 23:00 METAR CYGR 242300Z 22014G21KT 20SM SCT240 BKN270 11/01 A3007 RMK CI3CI3 SLP185 =
2018-04-24 22:00 METAR CYGR 242200Z 23014G19KT 20SM BKN270 13/00 A3008 RMK CI6 SLP187 =
2018-04-24 21:00 METAR CYGR 242100Z 24017G22KT 20SM BKN270 15/00 A3008 RMK CI6 SLP186 =
2018-04-24 20:00 METAR CYGR 242000Z 24015G21KT 20SM BKN270 15/01 A3009 RMK CI6 SLP191 =
2018-04-24 19:00 METAR CYGR 241900Z 24017G26KT 20SM FEW270 14/M00 A3010 RMK CI1 CI TR SLP196 =
2018-04-24 18:00 METAR CYGR 241800Z 24016G24KT 20SM FEW270 14/01 A3012 RMK CI1 CI TR SLP200 =
2018-04-24 17:00 METAR CYGR 241700Z 24020G26KT 20SM FEW260 12/M00 A3012 RMK CI1 SLP202 =
2018-04-24 16:00 METAR CYGR 241600Z 23017G23KT 20SM FEW260 11/M01 A3015 RMK CI1 SLP210 =
2018-04-24 15:00 METAR CYGR 241500Z 24017G25KT 20SM FEW160 FEW260 10/M02 A3016 RMK AC1CI1 AC TR
                 SLP216 =
2018-04-24 14:00 METAR CYGR 241400Z 23017G22KT 20SM FEW170 FEW260 09/M02 A3018 RMK AC1CI1 AC TR
                 SLP222 =
2018-04-24 13:00 METAR CYGR 241300Z 24013G24KT 20SM FEW170 FEW260 08/M01 A3019 RMK AC1CI1 AC TR
                 SLP224 =

Support USWX by starting your Amazon purchase here.